Time;durP1;ratioP1;P1;durP2;ratioP2;P2;SDS_P1;SDS_P2;PMS_P1;PMS_P2;Temp;Humidity;BMP_temperature;BMP_pressure;BME280_temperature;BME280_humidity;BME280_pressure;Samples;Min_cycle;Max_cycle;Signal;HPM_P1;HPM_P2
2021/11/06 00:01:06;;;;;;;10.07;2.37;;;9.10;99.90;;;;;;5023068;28;20366;-66
2021/11/06 00:03:35;;;;;;;5.50;2.20;;;9.10;99.90;;;;;;5024321;28;20692;-66
2021/11/06 00:06:03;;;;;;;5.53;2.00;;;9.20;99.90;;;;;;5019340;28;20287;-66
2021/11/06 00:08:32;;;;;;;7.63;2.37;;;9.20;99.90;;;;;;5025071;28;20587;-66
2021/11/06 00:11:00;;;;;;;5.87;1.90;;;9.20;99.90;;;;;;5025468;28;20232;-66
2021/11/06 00:13:30;;;;;;;7.90;2.03;;;9.20;99.90;;;;;;5018383;28;20320;-66
2021/11/06 00:15:58;;;;;;;9.20;2.40;;;9.20;99.90;;;;;;5025601;28;20534;-66
2021/11/06 00:18:27;;;;;;;6.33;2.73;;;9.20;99.90;;;;;;5022749;28;20246;-66
2021/11/06 00:20:55;;;;;;;10.77;2.73;;;9.20;99.90;;;;;;5021386;28;20699;-66
2021/11/06 00:23:24;;;;;;;10.17;2.63;;;9.20;99.90;;;;;;5026409;28;20585;-66
2021/11/06 00:25:56;;;;;;;6.77;2.57;;;9.20;99.90;;;;;;5026426;28;20237;-66
2021/11/06 00:28:24;;;;;;;8.67;2.70;;;9.20;99.90;;;;;;5026154;28;20312;-66
2021/11/06 00:30:55;;;;;;;6.63;3.33;;;9.20;99.90;;;;;;5024833;28;20252;-66
2021/11/06 00:33:23;;;;;;;6.97;2.70;;;9.30;99.90;;;;;;5025839;28;20240;-66
2021/11/06 00:35:52;;;;;;;8.03;2.43;;;9.30;99.90;;;;;;5025890;28;20243;-66
2021/11/06 00:38:20;;;;;;;4.80;1.83;;;9.20;99.90;;;;;;5026147;28;20229;-66
2021/11/06 00:40:49;;;;;;;6.63;2.10;;;9.20;99.90;;;;;;5025433;28;20237;-66
2021/11/06 00:43:19;;;;;;;5.93;1.70;;;9.30;99.90;;;;;;5025829;28;20237;-66
2021/11/06 00:45:48;;;;;;;7.80;1.77;;;9.30;99.90;;;;;;5025896;28;20249;-66
2021/11/06 00:48:18;;;;;;;5.40;2.03;;;9.30;99.90;;;;;;5029536;28;20236;-66
2021/11/06 00:50:46;;;;;;;5.37;1.60;;;9.30;99.90;;;;;;5029048;28;20778;-66
2021/11/06 00:53:14;;;;;;;7.40;1.97;;;9.20;99.90;;;;;;5029613;28;20311;-66
2021/11/06 00:55:43;;;;;;;5.47;1.60;;;9.30;99.90;;;;;;5028972;28;20341;-66
2021/11/06 00:58:11;;;;;;;4.93;1.60;;;9.20;99.90;;;;;;5029348;28;20294;-66
2021/11/06 01:00:40;;;;;;;7.03;1.80;;;9.20;99.90;;;;;;5028316;28;20252;-66
2021/11/06 01:03:10;;;;;;;6.23;1.70;;;9.20;99.90;;;;;;5029311;28;20244;-66
2021/11/06 01:05:40;;;;;;;6.73;1.73;;;9.20;99.90;;;;;;5029027;28;20240;-66
2021/11/06 01:08:11;;;;;;;4.53;1.90;;;9.20;99.90;;;;;;5029030;28;20264;-66
2021/11/06 01:10:43;;;;;;;6.73;1.57;;;9.20;99.90;;;;;;5028727;28;20244;-66
2021/11/06 01:13:13;;;;;;;9.17;2.00;;;9.20;99.90;;;;;;5029582;28;20327;-66
2021/11/06 01:15:44;;;;;;;7.00;1.60;;;9.20;99.90;;;;;;5025293;28;20326;-66
2021/11/06 01:18:13;;;;;;;4.53;1.50;;;9.20;99.90;;;;;;5029167;28;20786;-66
2021/11/06 01:20:43;;;;;;;5.07;1.60;;;9.20;99.90;;;;;;5027914;28;20977;-66
2021/11/06 01:23:12;;;;;;;3.80;1.50;;;9.20;99.90;;;;;;5029161;28;20263;-66
2021/11/06 01:25:40;;;;;;;8.33;1.30;;;9.20;99.90;;;;;;5020986;28;20324;-66
2021/11/06 01:28:09;;;;;;;6.70;1.90;;;9.20;99.90;;;;;;5029056;28;20271;-66
2021/11/06 01:30:37;;;;;;;6.80;1.30;;;9.20;99.90;;;;;;5020588;28;20243;-66
2021/11/06 01:33:06;;;;;;;4.40;1.20;;;9.20;99.90;;;;;;5029069;28;20272;-66
2021/11/06 01:35:34;;;;;;;5.23;1.40;;;9.20;99.90;;;;;;5028308;28;20656;-66
2021/11/06 01:38:04;;;;;;;5.43;1.30;;;9.20;99.90;;;;;;5029113;28;20290;-66
2021/11/06 01:40:33;;;;;;;7.93;1.63;;;9.30;99.90;;;;;;5028160;28;20244;-66
2021/11/06 01:43:02;;;;;;;4.07;1.43;;;9.30;99.90;;;;;;5028854;28;20256;-66
2021/11/06 01:45:30;;;;;;;8.03;1.73;;;9.30;99.90;;;;;;5024495;28;20577;-66
2021/11/06 01:47:59;;;;;;;6.70;1.50;;;9.30;99.90;;;;;;5028479;28;20279;-66
2021/11/06 01:50:29;;;;;;;5.63;1.50;;;9.30;99.90;;;;;;5027425;28;20244;-66
2021/11/06 01:52:57;;;;;;;7.40;1.40;;;9.30;99.90;;;;;;5025786;28;20243;-66
2021/11/06 01:55:27;;;;;;;3.77;1.40;;;9.30;99.90;;;;;;5027875;28;20695;-66
2021/11/06 01:57:56;;;;;;;6.53;1.50;;;9.30;99.90;;;;;;5027939;28;20719;-66
2021/11/06 02:00:27;;;;;;;3.17;1.60;;;9.20;99.90;;;;;;5026953;28;20708;-66
2021/11/06 02:02:56;;;;;;;6.50;1.40;;;9.20;99.90;;;;;;5028068;28;20618;-66
2021/11/06 02:05:25;;;;;;;4.80;1.20;;;9.30;99.90;;;;;;5027788;28;20730;-66
2021/11/06 02:07:54;;;;;;;7.97;1.70;;;9.20;99.90;;;;;;5028152;28;20243;-66
2021/11/06 02:10:22;;;;;;;4.20;1.70;;;9.20;99.90;;;;;;5026844;28;20229;-66
2021/11/06 02:12:53;;;;;;;5.10;1.30;;;9.30;99.90;;;;;;5027742;28;20276;-66
2021/11/06 02:15:22;;;;;;;5.27;1.73;;;9.20;99.90;;;;;;5027897;28;20233;-66
2021/11/06 02:17:51;;;;;;;4.00;1.47;;;9.20;99.90;;;;;;5028137;28;20245;-66
2021/11/06 02:20:21;;;;;;;3.87;1.57;;;9.20;99.90;;;;;;5026143;28;20608;-66
2021/11/06 02:22:52;;;;;;;5.17;1.50;;;9.20;99.90;;;;;;5023295;28;20264;-66
2021/11/06 02:25:21;;;;;;;7.77;1.53;;;9.20;99.90;;;;;;5027693;28;20619;-66
2021/11/06 02:28:09;;;;;;;6.67;1.30;;;9.20;99.90;;;;;;5027862;28;20696;-66
2021/11/06 02:30:38;;;;;;;4.23;1.47;;;9.30;99.90;;;;;;5027128;28;20259;-66
2021/11/06 02:33:06;;;;;;;5.70;1.50;;;9.20;99.90;;;;;;5024744;28;20232;-66
2021/11/06 02:35:35;;;;;;;5.73;1.47;;;9.20;99.90;;;;;;5027506;28;20236;-66
2021/11/06 02:38:09;;;;;;;4.13;1.53;;;9.20;99.90;;;;;;5027342;28;20233;-66
2021/11/06 02:40:38;;;;;;;7.00;2.00;;;9.30;99.90;;;;;;5026723;28;20249;-66
2021/11/06 02:43:07;;;;;;;3.60;1.43;;;9.30;99.90;;;;;;5027576;28;20460;-66
2021/11/06 02:45:36;;;;;;;5.97;1.73;;;9.20;99.90;;;;;;5027343;28;20244;-66
2021/11/06 02:48:07;;;;;;;8.13;1.63;;;9.20;99.90;;;;;;5024082;28;20233;-66
2021/11/06 02:50:36;;;;;;;5.07;1.60;;;9.30;99.90;;;;;;5025918;28;20549;-66
2021/11/06 02:53:04;;;;;;;6.93;1.47;;;9.30;99.90;;;;;;5024581;28;20248;-66
2021/11/06 02:55:34;;;;;;;6.03;1.53;;;9.30;99.90;;;;;;5019585;28;20244;-66
2021/11/06 02:58:03;;;;;;;4.83;1.77;;;9.30;99.90;;;;;;5027528;28;20247;-66
2021/11/06 03:00:32;;;;;;;4.17;2.00;;;9.30;99.90;;;;;;5021779;28;20777;-66
2021/11/06 03:03:01;;;;;;;4.40;1.60;;;9.30;99.90;;;;;;5027097;28;20539;-66
2021/11/06 03:05:29;;;;;;;4.10;1.50;;;9.30;99.90;;;;;;5022648;28;20248;-66
2021/11/06 03:07:59;;;;;;;3.57;1.30;;;9.30;99.90;;;;;;5027507;28;20252;-66
2021/11/06 03:10:29;;;;;;;5.07;1.70;;;9.30;99.90;;;;;;5026201;28;20245;-66
2021/11/06 03:13:01;;;;;;;9.23;1.90;;;9.30;99.90;;;;;;5006776;28;20295;-66
2021/11/06 03:15:29;;;;;;;5.37;1.60;;;9.30;99.90;;;;;;5022452;28;20240;-66
2021/11/06 03:17:58;;;;;;;6.17;1.77;;;9.30;99.90;;;;;;5026725;28;20297;-66
2021/11/06 03:20:29;;;;;;;3.03;1.50;;;9.30;99.90;;;;;;5025657;28;20236;-66
2021/11/06 03:22:59;;;;;;;5.50;1.97;;;9.30;99.90;;;;;;5026551;28;20272;-66
2021/11/06 03:25:28;;;;;;;6.20;1.97;;;9.30;99.90;;;;;;5027023;28;20250;-66
2021/11/06 03:27:57;;;;;;;4.57;1.73;;;9.20;99.90;;;;;;5026673;28;20290;-66
2021/11/06 03:30:27;;;;;;;6.43;1.70;;;9.10;99.90;;;;;;5025749;28;20236;-66
2021/11/06 03:32:55;;;;;;;5.27;1.90;;;9.10;99.90;;;;;;5026887;28;20588;-66
2021/11/06 03:35:24;;;;;;;5.07;1.87;;;9.10;99.90;;;;;;5026662;28;20626;-65
2021/11/06 03:37:57;;;;;;;5.40;2.00;;;9.10;99.90;;;;;;5022922;28;20240;-65
2021/11/06 03:40:26;;;;;;;7.00;2.10;;;9.20;99.90;;;;;;5025473;28;20298;-65
2021/11/06 03:42:55;;;;;;;3.97;1.87;;;9.20;99.90;;;;;;5026053;28;20248;-66
2021/11/06 03:45:24;;;;;;;6.20;1.97;;;9.10;99.90;;;;;;5026555;28;20264;-66
2021/11/06 03:47:56;;;;;;;6.27;2.03;;;9.10;99.90;;;;;;5026943;28;20600;-66
2021/11/06 03:50:24;;;;;;;4.27;2.00;;;9.10;99.90;;;;;;5025507;28;20225;-66
2021/11/06 03:52:53;;;;;;;5.40;2.30;;;9.00;99.90;;;;;;5023082;28;20236;-66
2021/11/06 03:55:21;;;;;;;5.13;2.50;;;9.10;99.90;;;;;;5026190;28;20708;-65
2021/11/06 03:57:50;;;;;;;4.47;2.40;;;9.00;99.90;;;;;;5026705;28;20327;-66
2021/11/06 04:00:19;;;;;;;4.47;2.40;;;9.00;99.90;;;;;;5026006;28;20821;-66
2021/11/06 04:02:48;;;;;;;4.50;2.20;;;9.00;99.90;;;;;;5026370;28;20244;-66
2021/11/06 04:05:18;;;;;;;8.03;2.63;;;9.00;99.90;;;;;;5026156;28;20224;-66
2021/11/06 04:07:47;;;;;;;4.77;2.43;;;9.00;99.90;;;;;;5026358;28;20306;-66
2021/11/06 04:10:15;;;;;;;7.17;2.47;;;9.00;99.90;;;;;;5025949;28;20236;-66
2021/11/06 04:12:44;;;;;;;6.43;2.27;;;9.00;99.90;;;;;;5025873;28;20580;-66
2021/11/06 04:15:14;;;;;;;6.47;3.03;;;8.90;99.90;;;;;;5026017;28;20299;-66
2021/11/06 04:17:43;;;;;;;5.90;3.07;;;8.90;99.90;;;;;;5026068;28;20245;-66
2021/11/06 04:20:11;;;;;;;4.67;2.80;;;8.90;99.90;;;;;;5025072;28;20260;-66
2021/11/06 04:22:42;;;;;;;4.63;3.00;;;8.90;99.90;;;;;;5028628;28;20232;-65
2021/11/06 04:25:10;;;;;;;6.13;3.30;;;8.80;99.90;;;;;;5030122;28;20254;-66
2021/11/06 04:27:38;;;;;;;8.80;3.80;;;8.80;99.90;;;;;;5029890;28;20316;-66
2021/11/06 04:30:08;;;;;;;10.23;3.20;;;8.70;99.90;;;;;;5029273;28;20236;-66
2021/11/06 04:32:36;;;;;;;7.93;3.10;;;8.70;99.90;;;;;;5029742;28;20579;-66
2021/11/06 04:35:07;;;;;;;5.97;3.27;;;8.80;99.90;;;;;;5029705;28;20232;-66
2021/11/06 04:37:36;;;;;;;7.50;3.60;;;8.60;99.90;;;;;;5030257;28;20267;-66
2021/11/06 04:40:07;;;;;;;6.13;3.50;;;8.60;99.90;;;;;;5025603;28;20303;-65
2021/11/06 04:42:36;;;;;;;5.97;3.60;;;8.70;99.90;;;;;;5029660;28;20324;-66
2021/11/06 04:45:06;;;;;;;6.60;3.83;;;8.60;99.90;;;;;;5029510;28;20327;-66
2021/11/06 04:47:35;;;;;;;6.83;3.90;;;8.50;99.90;;;;;;5029870;28;20651;-66
2021/11/06 04:50:04;;;;;;;5.13;3.80;;;8.50;99.90;;;;;;5029154;28;20248;-65
2021/11/06 04:52:35;;;;;;;6.33;4.13;;;8.50;99.90;;;;;;5029758;28;20244;-65
2021/11/06 04:55:07;;;;;;;6.07;4.50;;;8.50;99.90;;;;;;5029522;28;20338;-66
2021/11/06 04:57:37;;;;;;;7.00;4.90;;;8.50;99.90;;;;;;5029246;28;20263;-66
2021/11/06 05:00:08;;;;;;;10.00;4.93;;;8.50;99.90;;;;;;5029117;28;20236;-66
2021/11/06 05:02:38;;;;;;;6.20;4.70;;;8.50;99.90;;;;;;5029251;28;20275;-66
2021/11/06 05:05:09;;;;;;;8.20;5.20;;;8.50;99.90;;;;;;5029178;28;20719;-66
2021/11/06 05:07:38;;;;;;;10.00;5.63;;;8.50;99.90;;;;;;5029254;28;20236;-66
2021/11/06 05:10:08;;;;;;;9.37;5.37;;;8.40;99.90;;;;;;5024838;28;20239;-66
2021/11/06 05:12:37;;;;;;;9.50;5.33;;;8.40;99.90;;;;;;5028928;28;20603;-66
2021/11/06 05:15:07;;;;;;;8.23;6.03;;;8.50;99.90;;;;;;5029222;28;20256;-66
2021/11/06 05:17:36;;;;;;;10.40;6.07;;;8.50;99.90;;;;;;5029491;28;20248;-66
2021/11/06 05:20:05;;;;;;;8.13;5.90;;;8.50;99.90;;;;;;5028624;28;20233;-66
2021/11/06 05:22:34;;;;;;;8.10;5.90;;;8.50;99.90;;;;;;5028880;28;20719;-66
2021/11/06 05:25:04;;;;;;;10.13;5.80;;;8.50;99.90;;;;;;5029011;28;20236;-66
2021/11/06 05:27:34;;;;;;;9.63;6.30;;;8.50;99.90;;;;;;5014335;28;20255;-66
2021/11/06 05:30:09;;;;;;;9.07;5.80;;;8.50;99.90;;;;;;5018423;28;20263;-66
2021/11/06 05:32:38;;;;;;;10.53;6.30;;;8.50;99.90;;;;;;5028174;28;20726;-66
2021/11/06 05:35:08;;;;;;;7.87;6.00;;;8.50;99.90;;;;;;5027744;28;20237;-66
2021/11/06 05:37:37;;;;;;;8.07;5.70;;;8.50;99.90;;;;;;5025662;28;20267;-66
2021/11/06 05:40:08;;;;;;;11.57;6.40;;;8.50;99.90;;;;;;5028044;28;20236;-66
2021/11/06 05:42:37;;;;;;;9.73;6.20;;;8.50;99.90;;;;;;5028426;28;20247;-66
2021/11/06 05:45:08;;;;;;;9.93;6.83;;;8.50;99.90;;;;;;5028535;28;20730;-66
2021/11/06 05:47:37;;;;;;;12.43;7.33;;;8.50;99.90;;;;;;5028330;28;20236;-66
2021/11/06 05:50:09;;;;;;;9.77;7.10;;;8.50;99.90;;;;;;5027831;28;20712;-66
2021/11/06 05:52:38;;;;;;;12.70;6.70;;;8.50;99.90;;;;;;5013113;28;20264;-66
2021/11/06 05:55:08;;;;;;;9.97;7.03;;;8.50;99.90;;;;;;5015145;28;20233;-66
2021/11/06 05:57:38;;;;;;;11.13;6.73;;;8.40;99.90;;;;;;5015169;28;20344;-66
2021/11/06 06:00:09;;;;;;;10.20;6.77;;;8.50;99.90;;;;;;5013860;28;20249;-66
2021/11/06 06:02:38;;;;;;;11.50;7.60;;;8.50;99.90;;;;;;5015339;28;20243;-66
2021/11/06 06:05:09;;;;;;;10.80;7.23;;;8.40;99.90;;;;;;5015440;28;20708;-66
2021/11/06 06:07:38;;;;;;;10.07;7.23;;;8.40;99.90;;;;;;5014698;28;20239;-66
2021/11/06 06:10:12;;;;;;;11.83;7.37;;;8.50;99.90;;;;;;5015032;28;20297;-66
2021/11/06 06:12:42;;;;;;;12.63;7.57;;;8.50;99.90;;;;;;5013858;28;20365;-66
2021/11/06 06:15:11;;;;;;;11.07;7.63;;;8.40;99.90;;;;;;5014684;28;20233;-66
2021/11/06 06:17:40;;;;;;;14.33;8.40;;;8.40;99.90;;;;;;5014350;28;20440;-66
2021/11/06 06:20:11;;;;;;;10.07;8.30;;;8.40;99.90;;;;;;5015187;28;20245;-66
2021/11/06 06:22:40;;;;;;;12.20;9.00;;;8.40;99.90;;;;;;5014727;28;20275;-66
2021/11/06 06:25:10;;;;;;;9.73;7.93;;;8.50;99.90;;;;;;5014129;28;20250;-66
2021/11/06 06:27:41;;;;;;;12.90;8.73;;;8.40;99.90;;;;;;5025569;28;20717;-66
2021/11/06 06:30:12;;;;;;;11.90;8.30;;;8.50;99.90;;;;;;5026325;28;20302;-66
2021/11/06 06:32:40;;;;;;;12.40;8.10;;;8.40;99.90;;;;;;5021148;28;20635;-66
2021/11/06 06:35:10;;;;;;;12.73;9.03;;;8.40;99.90;;;;;;5022174;28;20224;-66
2021/11/06 06:37:39;;;;;;;10.23;8.63;;;8.40;99.90;;;;;;5017913;28;20240;-66
2021/11/06 06:40:09;;;;;;;12.43;8.47;;;8.40;99.90;;;;;;5026402;28;20738;-66
2021/11/06 06:42:37;;;;;;;20.73;9.17;;;8.40;99.90;;;;;;5026558;28;20323;-66
2021/11/06 06:45:07;;;;;;;12.07;9.07;;;8.30;99.90;;;;;;5022292;28;20232;-66
2021/11/06 06:47:36;;;;;;;14.40;9.00;;;8.40;99.90;;;;;;5026436;28;20240;-66
2021/11/06 06:50:04;;;;;;;12.57;9.57;;;8.40;99.90;;;;;;5025513;28;20315;-66
2021/11/06 06:52:33;;;;;;;18.10;9.13;;;8.40;99.90;;;;;;5025748;28;20599;-66
2021/11/06 06:55:02;;;;;;;13.53;9.30;;;8.40;99.90;;;;;;5026283;28;20244;-66
2021/11/06 06:57:30;;;;;;;12.80;8.90;;;8.40;99.90;;;;;;5024921;28;20232;-66
2021/11/06 06:59:58;;;;;;;11.53;8.97;;;8.50;99.90;;;;;;5025255;28;20271;-66
2021/11/06 07:02:28;;;;;;;12.40;8.93;;;8.50;99.90;;;;;;5019324;28;20237;-66
2021/11/06 07:04:56;;;;;;;12.77;10.03;;;8.50;99.90;;;;;;5025590;28;20240;-66
2021/11/06 07:07:24;;;;;;;19.33;11.90;;;8.50;99.90;;;;;;5025339;28;20600;-66
2021/11/06 07:09:52;;;;;;;14.90;10.83;;;8.60;99.90;;;;;;5023583;28;20633;-66
2021/11/06 07:12:21;;;;;;;17.97;11.03;;;8.60;99.90;;;;;;5024027;28;20700;-66
2021/11/06 07:14:50;;;;;;;20.50;11.87;;;8.60;99.90;;;;;;5022576;28;20645;-66
2021/11/06 07:17:18;;;;;;;19.53;12.47;;;8.70;99.90;;;;;;5024167;28;20232;-66
2021/11/06 07:19:48;;;;;;;17.00;11.13;;;8.60;99.90;;;;;;5020823;28;20243;-66
2021/11/06 07:22:16;;;;;;;19.50;12.50;;;8.70;99.90;;;;;;5024880;28;20225;-66
2021/11/06 07:24:44;;;;;;;17.03;13.10;;;8.70;99.90;;;;;;5021445;28;20239;-66
2021/11/06 07:27:13;;;;;;;16.23;13.13;;;8.70;99.90;;;;;;5024652;28;20762;-66
2021/11/06 07:29:41;;;;;;;17.27;13.43;;;8.80;99.90;;;;;;5018333;28;20323;-66
2021/11/06 07:32:09;;;;;;;21.87;14.97;;;8.80;99.90;;;;;;5025552;28;20246;-66
2021/11/06 07:34:37;;;;;;;23.53;16.20;;;8.80;99.90;;;;;;5025802;28;20331;-66
2021/11/06 07:37:07;;;;;;;21.37;15.83;;;8.80;99.90;;;;;;5026002;28;20700;-66
2021/11/06 07:39:37;;;;;;;19.93;16.60;;;8.80;99.90;;;;;;5022789;28;20591;-66
2021/11/06 07:42:05;;;;;;;22.53;16.40;;;8.80;99.90;;;;;;5025888;28;20229;-66
2021/11/06 07:44:34;;;;;;;22.17;17.33;;;8.80;99.90;;;;;;5026162;28;20267;-66
2021/11/06 07:47:02;;;;;;;27.23;18.97;;;8.90;99.90;;;;;;5024581;28;20228;-66
2021/11/06 07:49:30;;;;;;;21.93;17.93;;;8.90;99.90;;;;;;5015793;28;20654;-66
2021/11/06 07:51:59;;;;;;;25.47;19.03;;;8.90;99.90;;;;;;5024904;28;20315;-66
2021/11/06 07:54:29;;;;;;;29.20;20.00;;;9.00;99.90;;;;;;5024531;28;20327;-66
2021/11/06 07:56:58;;;;;;;26.27;19.23;;;8.90;99.90;;;;;;5026338;28;20727;-66
2021/11/06 07:59:26;;;;;;;26.60;20.60;;;9.00;99.90;;;;;;5028355;28;20853;-66
2021/11/06 08:01:55;;;;;;;25.60;20.43;;;9.00;99.90;;;;;;5029941;28;20394;-66
2021/11/06 08:04:23;;;;;;;28.37;22.70;;;9.00;99.90;;;;;;5027180;28;20271;-66
2021/11/06 08:06:51;;;;;;;25.37;21.40;;;9.00;99.90;;;;;;5030211;28;20238;-66
2021/11/06 08:09:19;;;;;;;27.27;22.20;;;9.10;99.90;;;;;;5029815;28;20330;-66
2021/11/06 08:11:49;;;;;;;26.03;21.63;;;9.10;99.90;;;;;;5029975;28;20275;-66
2021/11/06 08:14:18;;;;;;;27.63;21.90;;;9.10;99.90;;;;;;5029990;28;20501;-66
2021/11/06 08:16:49;;;;;;;27.30;21.87;;;9.10;99.90;;;;;;5029574;28;20319;-66
2021/11/06 08:19:17;;;;;;;29.10;21.60;;;9.10;99.90;;;;;;5027281;28;20261;-66
2021/11/06 08:21:45;;;;;;;27.67;22.77;;;9.10;99.90;;;;;;5029237;28;20233;-66
2021/11/06 08:24:14;;;;;;;27.67;22.60;;;9.20;99.90;;;;;;5029551;28;20228;-66
2021/11/06 08:26:42;;;;;;;28.20;22.23;;;9.20;99.90;;;;;;5030146;28;20237;-66
2021/11/06 08:29:11;;;;;;;28.77;23.60;;;9.20;99.90;;;;;;5029477;28;20243;-66
2021/11/06 08:31:40;;;;;;;28.63;22.90;;;9.20;99.90;;;;;;5030095;28;20354;-66
2021/11/06 08:34:08;;;;;;;29.60;22.43;;;9.20;99.90;;;;;;5029564;28;20237;-66
2021/11/06 08:36:37;;;;;;;27.93;23.27;;;9.30;99.90;;;;;;5029832;28;20236;-66
2021/11/06 08:39:06;;;;;;;29.87;24.00;;;9.30;99.90;;;;;;5026522;28;20281;-66
2021/11/06 08:41:34;;;;;;;27.67;24.40;;;9.30;99.90;;;;;;5034846;28;20267;-66
2021/11/06 08:44:02;;;;;;;26.80;23.40;;;9.40;99.90;;;;;;5029547;28;20237;-66
2021/11/06 08:46:31;;;;;;;28.70;25.03;;;9.40;99.90;;;;;;5028857;28;20260;-66
2021/11/06 08:49:00;;;;;;;28.83;24.93;;;9.40;99.90;;;;;;5028556;28;20328;-66
2021/11/06 08:51:28;;;;;;;28.97;25.17;;;9.40;99.90;;;;;;5028499;28;20229;-66
2021/11/06 08:53:57;;;;;;;32.23;25.03;;;9.40;99.90;;;;;;5026967;28;20290;-66
2021/11/06 08:56:28;;;;;;;30.80;26.50;;;9.50;99.90;;;;;;5028766;28;20332;-66
2021/11/06 08:58:57;;;;;;;28.10;25.10;;;9.50;99.90;;;;;;5026635;28;20716;-66
2021/11/06 09:01:25;;;;;;;32.03;26.90;;;9.60;99.90;;;;;;5028268;28;20240;-66
2021/11/06 09:03:58;;;;;;;31.07;27.03;;;9.60;99.90;;;;;;5026408;28;20637;-66
2021/11/06 09:06:26;;;;;;;31.80;27.07;;;9.60;99.90;;;;;;5028176;28;20319;-66
2021/11/06 09:08:54;;;;;;;30.50;25.83;;;9.60;99.90;;;;;;5026346;28;20628;-66
2021/11/06 09:11:24;;;;;;;31.23;26.47;;;9.70;99.90;;;;;;5028176;28;21208;-67
2021/11/06 09:13:54;;;;;;;30.37;26.83;;;9.70;99.90;;;;;;5025584;28;20324;-66
2021/11/06 09:16:22;;;;;;;30.77;27.10;;;9.70;99.90;;;;;;5017457;28;20240;-66
2021/11/06 09:18:51;;;;;;;35.17;27.47;;;9.80;99.90;;;;;;5009734;28;20285;-66
2021/11/06 09:21:24;;;;;;;31.70;27.67;;;9.80;99.90;;;;;;5011240;28;20228;-66
2021/11/06 09:23:53;;;;;;;32.90;27.00;;;9.80;99.90;;;;;;5008774;28;20649;-66
2021/11/06 09:26:22;;;;;;;30.37;26.83;;;9.90;99.90;;;;;;5010286;28;20632;-66
2021/11/06 09:28:50;;;;;;;30.13;26.57;;;9.90;99.90;;;;;;5011020;28;20689;-66
2021/11/06 09:31:19;;;;;;;30.10;26.83;;;9.90;99.90;;;;;;5009893;28;20241;-66
2021/11/06 09:33:48;;;;;;;32.57;29.10;;;10.00;99.90;;;;;;5006616;28;21143;-66
2021/11/06 09:36:16;;;;;;;30.80;27.03;;;10.00;99.90;;;;;;5010758;28;20672;-66
2021/11/06 09:38:46;;;;;;;31.13;27.30;;;10.00;99.90;;;;;;5009790;28;20241;-66
2021/11/06 09:41:17;;;;;;;38.00;29.60;;;10.00;99.90;;;;;;5011140;28;20298;-66
2021/11/06 09:43:45;;;;;;;34.17;29.23;;;10.10;99.90;;;;;;5008147;28;20259;-66
2021/11/06 09:46:15;;;;;;;30.60;27.30;;;10.10;99.90;;;;;;5010091;28;20246;-66
2021/11/06 09:48:45;;;;;;;31.73;28.23;;;10.10;99.90;;;;;;5010691;28;20618;-66
2021/11/06 09:51:16;;;;;;;32.33;29.03;;;10.20;99.90;;;;;;5009778;28;20796;-66
2021/11/06 09:53:48;;;;;;;32.33;28.73;;;10.20;99.90;;;;;;5008056;28;20236;-66
2021/11/06 09:56:19;;;;;;;33.07;29.67;;;10.20;99.90;;;;;;5009520;28;20335;-66
2021/11/06 09:58:54;;;;;;;34.43;30.67;;;10.20;99.90;;;;;;5009570;28;20240;-66
2021/11/06 10:01:22;;;;;;;37.47;31.20;;;10.10;99.90;;;;;;5010265;28;20339;-66
2021/11/06 10:03:54;;;;;;;36.80;32.13;;;10.10;99.90;;;;;;5007014;28;20336;-66
2021/11/06 10:06:24;;;;;;;38.40;32.27;;;10.10;99.90;;;;;;5009549;28;20240;-66
2021/11/06 10:08:56;;;;;;;37.30;33.20;;;10.10;99.90;;;;;;5007448;28;20759;-66
2021/11/06 10:11:28;;;;;;;38.90;33.57;;;10.00;99.90;;;;;;5006622;28;20284;-66
2021/11/06 10:13:59;;;;;;;41.10;35.70;;;10.00;99.90;;;;;;5004214;28;20283;-66
2021/11/06 10:16:32;;;;;;;39.60;32.97;;;10.00;99.90;;;;;;5006806;28;20240;-66
2021/11/06 10:19:09;;;;;;;36.00;32.07;;;10.00;99.90;;;;;;5006964;28;20324;-66
2021/11/06 10:21:38;;;;;;;37.73;32.83;;;10.10;99.90;;;;;;5008079;28;20238;-66
2021/11/06 10:24:07;;;;;;;39.13;34.23;;;10.30;99.90;;;;;;5004031;28;20625;-66
2021/11/06 10:26:36;;;;;;;37.30;32.70;;;10.20;99.90;;;;;;5006857;28;20749;-66
2021/11/06 10:29:10;;;;;;;40.97;34.13;;;10.20;99.90;;;;;;5007797;28;20320;-66
2021/11/06 10:32:03;;;;;;;40.63;34.33;;;10.10;99.90;;;;;;5007492;28;20244;-66
2021/11/06 10:34:37;;;;;;;36.63;32.50;;;10.10;99.90;;;;;;5000748;28;20696;-66
2021/11/06 10:37:10;;;;;;;38.63;34.33;;;10.10;99.90;;;;;;5006549;28;20232;-66
2021/11/06 10:39:56;;;;;;;36.83;32.90;;;10.10;99.90;;;;;;5007321;28;20611;-66
2021/11/06 10:42:25;;;;;;;38.53;32.50;;;10.20;99.90;;;;;;5007080;28;21110;-66
2021/11/06 10:45:09;;;;;;;37.93;32.17;;;10.20;99.90;;;;;;5000766;28;20238;-66
2021/11/06 10:47:53;;;;;;;37.57;32.10;;;10.10;99.90;;;;;;5007304;28;20263;-66
2021/11/06 10:50:42;;;;;;;39.63;32.07;;;10.10;99.90;;;;;;5006753;28;20240;-66
2021/11/06 10:53:14;;;;;;;39.53;32.43;;;10.10;99.90;;;;;;5005989;28;20312;-66
2021/11/06 10:55:44;;;;;;;38.63;33.83;;;10.10;99.90;;;;;;5001671;28;20700;-66
2021/11/06 10:58:22;;;;;;;35.47;31.60;;;10.20;99.90;;;;;;5006673;28;20228;-66
2021/11/06 11:00:52;;;;;;;37.23;33.30;;;10.20;99.90;;;;;;5007139;28;20240;-66
2021/11/06 11:03:26;;;;;;;38.60;33.90;;;10.10;99.90;;;;;;5004582;28;20602;-66
2021/11/06 11:05:56;;;;;;;40.63;33.70;;;10.10;99.90;;;;;;5004205;28;20240;-66
2021/11/06 11:08:24;;;;;;;39.87;33.07;;;10.20;99.90;;;;;;5006132;28;20254;-66
2021/11/06 11:11:43;;;;;;;39.83;32.53;;;10.10;99.90;;;;;;5006699;28;20251;-66
2021/11/06 11:14:35;;;;;;;39.77;33.23;;;10.20;99.90;;;;;;5000000;28;20264;-66
2021/11/06 11:17:05;;;;;;;39.10;32.53;;;10.10;99.90;;;;;;5007124;28;20724;-66
2021/11/06 11:19:36;;;;;;;39.43;33.07;;;10.10;99.90;;;;;;5006138;28;20244;-66
2021/11/06 11:22:05;;;;;;;37.27;32.50;;;10.20;99.90;;;;;;5006166;28;20660;-66
2021/11/06 11:24:33;;;;;;;39.43;33.63;;;10.20;99.90;;;;;;4999180;28;20726;-66
2021/11/06 11:27:04;;;;;;;41.23;32.27;;;10.20;99.90;;;;;;5006203;28;20803;-66
2021/11/06 11:29:35;;;;;;;36.93;31.50;;;10.30;99.90;;;;;;5006320;28;20710;-67
2021/11/06 11:32:04;;;;;;;39.90;32.67;;;10.30;99.90;;;;;;5005741;28;20675;-66
2021/11/06 11:34:32;;;;;;;39.70;31.83;;;10.40;99.90;;;;;;4999143;28;20240;-65
2021/11/06 11:37:01;;;;;;;34.83;30.90;;;10.40;99.90;;;;;;5005985;28;20977;-65
2021/11/06 11:39:29;;;;;;;38.47;31.80;;;10.40;99.90;;;;;;5005989;28;20234;-65
2021/11/06 11:42:23;;;;;;;39.10;30.93;;;10.40;99.90;;;;;;5005963;28;20342;-65
2021/11/06 11:45:11;;;;;;;41.17;29.80;;;10.40;99.90;;;;;;4999195;28;21319;-65
2021/11/06 11:47:43;;;;;;;39.23;32.90;;;10.40;99.90;;;;;;5005150;28;20678;-65
2021/11/06 11:50:14;;;;;;;37.73;30.43;;;10.40;99.90;;;;;;5005696;28;20237;-65
2021/11/06 11:52:50;;;;;;;35.37;30.50;;;10.50;99.90;;;;;;5006148;28;20232;-65
2021/11/06 11:55:21;;;;;;;36.57;29.90;;;10.50;99.90;;;;;;4999577;28;20240;-65
2021/11/06 11:58:06;;;;;;;34.70;30.37;;;10.40;99.90;;;;;;5005641;28;20237;-65
2021/11/06 12:00:39;;;;;;;36.00;31.20;;;10.40;99.90;;;;;;5005422;28;20297;-65
2021/11/06 12:03:09;;;;;;;39.30;30.87;;;10.40;99.90;;;;;;5003599;28;20236;-65
2021/11/06 12:05:39;;;;;;;38.80;31.40;;;10.40;99.90;;;;;;4999058;28;20267;-65
2021/11/06 12:08:40;;;;;;;39.10;31.23;;;10.50;99.90;;;;;;5003873;28;20266;-65
2021/11/06 12:11:18;;;;;;;35.67;30.00;;;10.50;99.90;;;;;;5005467;28;20236;-65
2021/11/06 12:13:51;;;;;;;37.27;30.43;;;10.60;99.90;;;;;;4998738;28;20581;-65
2021/11/06 12:17:10;;;;;;;33.73;29.27;;;10.50;99.90;;;;;;5010462;28;20363;-65
2021/11/06 12:19:41;;;;;;;34.80;29.43;;;10.50;99.90;;;;;;5004033;28;20244;-65
2021/11/06 12:22:16;;;;;;;35.17;29.33;;;10.50;99.90;;;;;;5004908;28;20519;-65
2021/11/06 12:24:46;;;;;;;35.60;29.17;;;10.50;99.90;;;;;;4997344;28;20319;-65
2021/11/06 12:28:04;;;;;;;33.00;29.33;;;10.40;99.90;;;;;;5005387;28;20248;-65
2021/11/06 12:31:31;;;;;;;32.47;28.63;;;10.50;99.90;;;;;;5006758;28;20283;-65
2021/11/06 12:34:01;;;;;;;34.33;29.63;;;10.50;99.90;;;;;;4996889;28;20252;-65
2021/11/06 12:36:34;;;;;;;34.30;30.10;;;10.40;99.90;;;;;;5002319;28;20418;-65
2021/11/06 12:39:54;;;;;;;40.30;31.03;;;10.40;99.90;;;;;;5005126;28;20731;-65
2021/11/06 12:42:24;;;;;;;37.00;30.60;;;10.40;99.90;;;;;;5005531;28;20820;-65
2021/11/06 12:44:59;;;;;;;34.70;29.87;;;10.40;99.90;;;;;;5000864;28;20245;-65
2021/11/06 12:47:35;;;;;;;33.83;30.10;;;10.40;99.90;;;;;;5007574;28;20229;-65
2021/11/06 12:50:16;;;;;;;35.90;30.27;;;10.50;99.90;;;;;;5008896;28;20323;-65
2021/11/06 12:52:44;;;;;;;33.77;29.03;;;10.50;99.90;;;;;;5008199;28;20244;-65
2021/11/06 12:55:13;;;;;;;35.53;27.80;;;10.50;99.90;;;;;;5002189;28;20331;-65
2021/11/06 12:57:44;;;;;;;33.03;27.57;;;10.50;99.90;;;;;;5007396;28;20241;-65
2021/11/06 13:00:15;;;;;;;33.07;28.13;;;10.50;99.90;;;;;;5007859;28;20689;-65
2021/11/06 13:02:50;;;;;;;35.60;26.80;;;10.50;99.90;;;;;;5007749;28;21007;-65